| time (UTC) | temp C | wind direction | speed KPH | gust KPH | rain 1hr cm | rain 24hr cm | rain mn cm | humidity % | barometer mb |
| 20260507050039 | 5 | 50 | 4.8 | 9.7 | 0.00 | 1.27 | 0.00 | 97 | 1013.7 |
| 20260507044546 | 5 | 18 | 3.2 | 8.0 | 0.00 | 1.27 | 0.00 | 97 | 1013.6 |
| 20260507043044 | 5 | 59 | 1.6 | 9.7 | 0.00 | 1.27 | 0.00 | 97 | 1013.8 |
| 20260507041540 | 6 | 9 | 4.8 | 12.9 | 0.00 | 1.27 | 0.00 | 98 | 1013.5 |
| 20260507040039 | 6 | 45 | 0.0 | 4.8 | 0.00 | 1.27 | 0.00 | 98 | 1013.2 |
| 20260507034551 | 6 | 0 | 1.6 | 12.9 | 0.00 | 1.27 | 1.27 | 99 | 1012.8 |
| 20260507033044 | 6 | 23 | 1.6 | 4.8 | 0.00 | 1.27 | 1.27 | 98 | 1012.8 |
| 20260507031546 | 5 | 0 | 0.0 | 0.0 | 0.00 | 1.27 | 1.27 | 98 | 1013.0 |
| 20260507030050 | 5 | 0 | 0.0 | 0.0 | 0.00 | 1.27 | 1.27 | 98 | 1013.1 |
| 20260507024543 | 5 | 0 | 0.0 | 0.0 | 0.00 | 1.27 | 1.27 | 98 | 1013.0 |
| 20260507023038 | 5 | 0 | 0.0 | 0.0 | 0.00 | 1.27 | 1.27 | 98 | 1013.1 |
| 20260507021539 | 5 | 0 | 0.0 | 0.0 | 0.00 | 1.27 | 1.27 | 98 | 1013.1 |
| 20260507020039 | 5 | 0 | 0.0 | 0.0 | 0.00 | 1.27 | 1.27 | 98 | 1013.2 |
| 20260507014546 | 5 | 0 | 0.0 | 0.0 | 0.00 | 1.27 | 1.27 | 98 | 1013.3 |
| 20260507013037 | 5 | 0 | 0.0 | 0.0 | 0.00 | 1.27 | 1.27 | 98 | 1013.5 |
| 20260507011541 | 5 | 0 | 0.0 | 0.0 | 0.00 | 1.27 | 1.27 | 98 | 1013.1 |
| 20260507010044 | 5 | 0 | 0.0 | 0.0 | 0.00 | 1.27 | 1.27 | 98 | 1013.2 |
| 20260507004539 | 5 | 0 | 0.0 | 0.0 | 0.00 | 1.27 | 1.27 | 97 | 1012.9 |
| 20260507003038 | 6 | 0 | 0.0 | 0.0 | 0.00 | 1.27 | 1.27 | 98 | 1012.8 |
| 20260507001540 | 6 | 0 | 0.0 | 0.0 | 0.00 | 1.27 | 1.27 | 98 | 1012.8 |
| 20260507000040 | 6 | 0 | 0.0 | 0.0 | 0.00 | 1.27 | 1.27 | 98 | 1012.7 |
| 20260506234539 | 6 | 24 | 0.0 | 0.0 | 0.00 | 1.27 | 1.27 | 98 | 1012.6 |
| 20260506233045 | 6 | 0 | 0.0 | 0.0 | 0.00 | 1.27 | 1.27 | 97 | 1012.3 |
| 20260506231538 | 6 | 0 | 0.0 | 0.0 | 0.00 | 1.27 | 1.27 | 97 | 1012.1 |
| 20260506230039 | 6 | 0 | 0.0 | 3.2 | 0.00 | 1.27 | 1.27 | 97 | 1012.0 |
| 20260506224537 | 6 | 21 | 0.0 | 3.2 | 0.00 | 1.27 | 1.27 | 98 | 1011.8 |
| 20260506223042 | 6 | 21 | 0.0 | 4.8 | 0.00 | 1.27 | 1.27 | 98 | 1011.7 |
| 20260506221540 | 6 | 22 | 3.2 | 8.0 | 0.00 | 1.27 | 1.27 | 98 | 1011.8 |
| 20260506220042 | 6 | 0 | 1.6 | 4.8 | 0.00 | 1.27 | 1.27 | 98 | 1012.0 |
| 20260506214538 | 6 | 0 | 0.0 | 6.4 | 0.00 | 1.27 | 1.27 | 98 | 1011.7 |
| 20260506213037 | 6 | 14 | 1.6 | 11.3 | 0.00 | 1.27 | 1.27 | 98 | 1011.7 |
| 20260506211538 | 6 | 16 | 3.2 | 8.0 | 0.00 | 1.27 | 1.27 | 98 | 1011.6 |
| 20260506210039 | 6 | 15 | 4.8 | 9.7 | 0.00 | 1.27 | 1.27 | 99 | 1011.7 |
| 20260506204549 | 6 | 5 | 1.6 | 8.0 | 0.00 | 1.27 | 1.27 | 99 | 1011.2 |
| 20260506203042 | 6 | 26 | 3.2 | 11.3 | 0.03 | 1.27 | 1.27 | 98 | 1010.9 |
| 20260506201538 | 6 | 334 | 3.2 | 11.3 | 0.03 | 1.27 | 1.27 | 98 | 1010.8 |
| 20260506200038 | 6 | 355 | 3.2 | 11.3 | 0.05 | 1.27 | 1.27 | 98 | 1010.7 |
| 20260506194537 | 6 | 51 | 1.6 | 8.0 | 0.05 | 1.37 | 1.27 | 99 | 1010.4 |
| 20260506193040 | 6 | 28 | 1.6 | 6.4 | 0.03 | 1.32 | 1.24 | 99 | 1010.3 |
| 20260506191538 | 6 | 31 | 1.6 | 4.8 | 0.05 | 1.32 | 1.24 | 98 | 1010.3 |
| 20260506190037 | 6 | 13 | 1.6 | 6.4 | 0.05 | 1.32 | 1.22 | 99 | 1010.3 |
| 20260506184536 | 6 | 0 | 3.2 | 11.3 | 0.08 | 1.32 | 1.22 | 99 | 1010.3 |
| 20260506183040 | 6 | 195 | 1.6 | 4.8 | 0.05 | 1.30 | 1.19 | 99 | 1009.9 |
| 20260506181537 | 6 | 31 | 1.6 | 8.0 | 0.05 | 1.30 | 1.19 | 99 | 1009.7 |
| 20260506180048 | 6 | 123 | 0.0 | 8.0 | 0.03 | 1.27 | 1.17 | 99 | 1009.6 |
| 20260506174542 | 6 | 55 | 0.0 | 6.4 | 0.03 | 1.24 | 1.14 | 99 | 1009.3 |
| 20260506173038 | 6 | 67 | 0.0 | 8.0 | 0.03 | 1.24 | 1.14 | 99 | 1009.2 |
| 20260506171547 | 6 | 191 | 1.6 | 4.8 | 0.03 | 1.24 | 1.14 | 99 | 1009.0 |
| 20260506170056 | 6 | 0 | 1.6 | 6.4 | 0.03 | 1.24 | 1.14 | 98 | 1009.2 |
| 20260506164538 | 6 | 135 | 1.6 | 8.0 | 0.00 | 1.22 | 1.12 | 98 | 1009.1 |
| 20260506163056 | 6 | 111 | 1.6 | 4.8 | 0.03 | 1.22 | 1.12 | 98 | 1009.1 |
| 20260506161535 | 6 | 34 | 0.0 | 4.8 | 0.03 | 1.22 | 1.12 | 99 | 1009.0 |
| 20260506160042 | 6 | 78 | 0.0 | 3.2 | 0.05 | 1.22 | 1.12 | 99 | 1008.9 |
| 20260506154605 | 6 | 0 | 1.6 | 6.4 | 0.03 | 1.19 | 1.09 | 98 | 1009.0 |
| 20260506153046 | 6 | 61 | 0.0 | 4.8 | 0.03 | 1.19 | 1.09 | 98 | 1009.1 |
| 20260506151536 | 6 | 288 | 0.0 | 3.2 | 0.05 | 1.19 | 1.09 | 98 | 1008.9 |
| 20260506150035 | 6 | 0 | 0.0 | 4.8 | 0.03 | 1.17 | 1.07 | 98 | 1009.0 |
| 20260506144538 | 6 | 130 | 1.6 | 6.4 | 0.08 | 1.17 | 1.07 | 98 | 1008.8 |
| 20260506143048 | 6 | 200 | 1.6 | 4.8 | 0.15 | 1.17 | 1.07 | 98 | 1008.7 |
| 20260506141541 | 6 | 0 | 1.6 | 4.8 | 0.18 | 1.14 | 1.04 | 98 | 1008.7 |
| 20260506140038 | 6 | 208 | 0.0 | 4.8 | 0.20 | 1.14 | 1.04 | 98 | 1008.7 |
| 20260506134536 | 6 | 0 | 0.0 | 4.8 | 0.25 | 1.09 | 0.99 | 98 | 1008.8 |
| 20260506133040 | 6 | 0 | 0.0 | 3.2 | 0.30 | 1.02 | 0.91 | 98 | 1008.9 |
| 20260506131538 | 6 | 0 | 0.0 | 3.2 | 0.33 | 0.97 | 0.86 | 98 | 1008.9 |
| 20260506130039 | 6 | 188 | 1.6 | 6.4 | 0.36 | 0.94 | 0.84 | 98 | 1008.8 |
| 20260506124537 | 6 | 88 | 3.2 | 9.7 | 0.30 | 0.84 | 0.74 | 98 | 1009.2 |
| 20260506123037 | 7 | 61 | 3.2 | 11.3 | 0.20 | 0.71 | 0.61 | 97 | 1009.1 |
| 20260506121545 | 7 | 131 | 0.0 | 3.2 | 0.18 | 0.64 | 0.53 | 98 | 1008.7 |
| 20260506120052 | 8 | 0 | 1.6 | 4.8 | 0.18 | 0.58 | 0.48 | 98 | 1008.5 |
| 20260506114544 | 8 | 297 | 0.0 | 3.2 | 0.18 | 0.53 | 0.43 | 98 | 1008.3 |
| 20260506113037 | 8 | 0 | 0.0 | 3.2 | 0.18 | 0.51 | 0.41 | 98 | 1008.3 |
| 20260506111539 | 8 | 0 | 0.0 | 3.2 | 0.15 | 0.46 | 0.36 | 98 | 1008.3 |
| 20260506110042 | 8 | 0 | 0.0 | 3.2 | 0.15 | 0.41 | 0.30 | 98 | 1008.6 |
| 20260506104539 | 8 | 0 | 0.0 | 4.8 | 0.13 | 0.41 | 0.25 | 98 | 1008.6 |
| 20260506103037 | 8 | 295 | 1.6 | 4.8 | 0.15 | 0.38 | 0.23 | 98 | 1008.8 |
| 20260506101542 | 7 | 291 | 0.0 | 1.6 | 0.15 | 0.36 | 0.20 | 98 | 1008.7 |
| 20260506100047 | 7 | 0 | 0.0 | 4.8 | 0.13 | 0.30 | 0.15 | 98 | 1009.0 |
| 20260506094548 | 7 | 291 | 0.0 | 3.2 | 0.10 | 0.28 | 0.13 | 98 | 1008.9 |
| 20260506093043 | 7 | 294 | 0.0 | 6.4 | 0.08 | 0.23 | 0.08 | 98 | 1008.9 |
| 20260506091538 | 7 | 117 | 0.0 | 6.4 | 0.05 | 0.20 | 0.05 | 98 | 1009.3 |
| 20260506090038 | 7 | 167 | 0.0 | 0.0 | 0.03 | 0.18 | 0.03 | 98 | 1009.5 |
| 20260506084538 | 7 | 0 | 0.0 | 0.0 | 0.03 | 0.18 | 0.03 | 98 | 1009.2 |
| 20260506083038 | 7 | 0 | 0.0 | 0.0 | 0.00 | 0.15 | 0.00 | 98 | 1008.8 |
| 20260506081538 | 7 | 0 | 0.0 | 0.0 | 0.00 | 0.15 | 0.00 | 98 | 1009.0 |
| 20260506073043 | 7 | 0 | 0.0 | 6.4 | 0.00 | 0.15 | 0.00 | 97 | 1009.1 |
| 20260506071537 | 7 | 166 | 1.6 | 4.8 | 0.00 | 0.15 | 0.00 | 97 | 1009.3 |
| 20260506061538 | 7 | 163 | 0.0 | 3.2 | 0.00 | 0.15 | 0.00 | 97 | 1010.3 |